Marietta, GA (30006)

3:41 AM EDT on March 30, 2017 (GMT -0400)
MGA308 | | Change Station

Elev 1062 ft 33.97 °N, 84.53 °W | Updated 34 minutes ago

Clear
Clear
64.0 °F
Feels Like 64.0 °F
N
1.0
Wind Variable Wind from SE
Gusts 4.0 mph

Today
High -- | Low -- °F
--% Chance of Precip.
Yesterday
High -- | Low -- °F
Precip. -- in
Pressure 29.94 in
Visibility 10.0 miles
Clouds Clear
Dew Point 58 °F
Humidity 82%
Rainfall in
Snow Depth Not available.
7:27 AM 7:57 PM
Waxing Crescent, 7% visible
METAR KMGE 300658Z AUTO 00000KT 10SM CLR 19/14 A2996 RMK AO2 DZB41E51 SLP137 P0000 T01880141 $
Pressure 29.94 in
Visibility 10.0 miles
Clouds Clear
Dew Point 58 °F
Humidity 82%
Rainfall in
Snow Depth Not available.
7:27 AM 7:57 PM
Waxing Crescent, 7% visible
METAR KMGE 300658Z AUTO 00000KT 10SM CLR 19/14 A2996 RMK AO2 DZB41E51 SLP137 P0000 T01880141 $

Get Severe Weather Alerts

Thanks for signing up!

Be on the lookout for a verification email in your inbox.

You'll start receiving the daily forecast at 8 AM.

×

10-Day Weather Forecast

Almanac

Astronomy

Mar. 30, 2017 Rise Set
Actual Time
Civil Twilight
Nautical Twilight
Astronomical Twilight
Moon
Length of Visible Light
Length of Day
Tomorrow will be .
, % of the Moon is Illuminated

Today's Extremes

State Highs State Lows

Community

WunderPhotos

Upload Photos

1,962,540 photos uploaded!

WunderBlog® & News

Nearby

Air Quality

  Air Quality AQ Index Pollutant
Not available.

Snow Depth

Station Depth Elevation

Earthquake Activity

City Distance Mag. Time & Date
Minimum magnitude displayed is 2.5.

Earthquake Activity

City Distance Mag. Time & Date
Minimum magnitude displayed is 2.5.

Coastal Water Temperatures

Place Temperature

Stations

Nearby Weather Stations

Station Location Temp. Windchill Dew Point Humidity Wind Precip. Elev Updated Type
                   

Watches & Warnings

There are currently no watches in effect.